Time;durP1;ratioP1;P1;durP2;ratioP2;P2;SDS_P1;SDS_P2;PMS_P1;PMS_P2;Temp;Humidity;BMP_temperature;BMP_pressure;BME280_temperature;BME280_humidity;BME280_pressure;Samples;Min_cycle;Max_cycle;Signal;HPM_P1;HPM_P2
2022/01/13 00:01:59;;;;;;;15.88;7.65;;;-2.10;56.80;;;;;;5072641;28;20442;-20
2022/01/13 00:04:25;;;;;;;19.92;12.07;;;-2.10;56.50;;;;;;5072465;28;20021;-19
2022/01/13 00:06:51;;;;;;;17.25;7.60;;;-2.10;56.60;;;;;;5073064;28;20029;-20
2022/01/13 00:09:18;;;;;;;20.95;11.30;;;-2.10;56.60;;;;;;5073268;28;20372;-20
2022/01/13 00:11:47;;;;;;;21.77;12.70;;;-2.10;56.70;;;;;;5072611;28;20419;-19
2022/01/13 00:17:10;;;;;;;26.60;13.93;;;-2.20;57.90;;;;;;5073205;28;20060;-20
2022/01/13 00:24:59;;;;;;;34.83;19.38;;;-2.20;60.80;;;;;;5076850;28;20113;-20
2022/01/13 00:27:28;;;;;;;19.40;10.40;;;-2.20;60.70;;;;;;5077051;28;20036;-19
2022/01/13 00:29:56;;;;;;;21.05;9.65;;;-2.20;59.20;;;;;;5076428;28;20043;-19
2022/01/13 00:32:27;;;;;;;21.38;11.68;;;-2.10;58.90;;;;;;5075846;28;20115;-19
2022/01/13 00:34:53;;;;;;;17.02;8.73;;;-2.10;58.20;;;;;;5076088;28;20028;-19
2022/01/13 00:37:19;;;;;;;23.13;11.07;;;-2.10;58.30;;;;;;5075926;28;20036;-19
2022/01/13 00:39:45;;;;;;;14.82;7.57;;;-2.10;57.90;;;;;;5076241;28;20025;-20
2022/01/13 00:42:11;;;;;;;31.38;15.63;;;-2.10;57.70;;;;;;5074740;28;20503;-20
2022/01/13 00:44:38;;;;;;;38.47;20.92;;;-2.10;57.80;;;;;;5075602;28;20035;-19
2022/01/13 00:47:08;;;;;;;33.92;19.75;;;-2.00;58.50;;;;;;5076031;28;20029;-19
2022/01/13 00:49:35;;;;;;;44.47;23.08;;;-2.00;60.70;;;;;;5076396;28;20112;-19
2022/01/13 00:52:02;;;;;;;38.22;21.40;;;-2.00;62.60;;;;;;5075738;28;20036;-19
2022/01/13 00:54:28;;;;;;;33.40;18.00;;;-2.00;62.00;;;;;;5075295;28;20055;-19
2022/01/13 00:56:54;;;;;;;13.38;7.20;;;-2.00;61.40;;;;;;5076039;28;20032;-19
2022/01/13 00:59:20;;;;;;;22.85;12.75;;;-2.00;59.60;;;;;;5075934;28;20025;-19
2022/01/13 01:01:52;;;;;;;28.90;16.05;;;-1.90;59.30;;;;;;5075528;28;20159;-20
2022/01/13 01:04:19;;;;;;;29.63;15.70;;;-1.90;61.20;;;;;;5075450;28;20031;-20
2022/01/13 01:06:46;;;;;;;20.45;11.27;;;-1.90;60.20;;;;;;5075777;28;20021;-19
2022/01/13 01:09:16;;;;;;;29.08;14.80;;;-1.90;59.60;;;;;;5075405;28;20103;-19
2022/01/13 01:11:46;;;;;;;23.00;12.48;;;-2.00;59.80;;;;;;5075732;28;20056;-19
2022/01/13 01:14:14;;;;;;;31.30;17.88;;;-2.00;60.30;;;;;;5075322;28;20082;-19
2022/01/13 01:16:40;;;;;;;26.63;14.45;;;-2.00;60.60;;;;;;5075189;28;20051;-19
2022/01/13 01:19:09;;;;;;;18.90;10.32;;;-2.00;61.70;;;;;;5075259;28;20472;-19
2022/01/13 01:26:59;;;;;;;10.73;5.63;;;-2.00;59.30;;;;;;5075228;28;20028;-22
2022/01/13 01:29:32;;;;;;;17.25;9.45;;;-2.00;58.90;;;;;;5075404;28;20029;-20
2022/01/13 01:32:00;;;;;;;15.05;7.93;;;-2.00;60.00;;;;;;5074905;28;20491;-19
2022/01/13 01:34:55;;;;;;;10.50;6.00;;;-2.00;60.30;;;;;;5073818;28;20067;-19
2022/01/13 01:37:24;;;;;;;20.05;11.85;;;-2.10;59.70;;;;;;5075193;28;20033;-19
2022/01/13 01:39:51;;;;;;;34.22;18.67;;;-2.10;60.20;;;;;;5075164;28;20039;-19
2022/01/13 01:42:19;;;;;;;22.27;12.02;;;-2.10;58.80;;;;;;5074598;28;20040;-19
2022/01/13 01:44:48;;;;;;;27.45;14.70;;;-2.10;59.10;;;;;;5075068;28;20029;-19
2022/01/13 01:47:16;;;;;;;12.15;6.75;;;-2.10;61.20;;;;;;5074603;28;20031;-19
2022/01/13 01:49:46;;;;;;;15.80;9.00;;;-2.20;59.40;;;;;;5074911;28;20388;-19
2022/01/13 01:52:16;;;;;;;18.33;10.98;;;-2.10;58.70;;;;;;5074872;28;20105;-19
2022/01/13 01:54:42;;;;;;;15.95;8.70;;;-2.20;58.60;;;;;;5074412;28;20060;-19
2022/01/13 01:57:09;;;;;;;27.63;14.90;;;-2.20;58.70;;;;;;5073435;28;20029;-20
2022/01/13 01:59:38;;;;;;;20.58;12.73;;;-2.20;59.60;;;;;;5074481;28;20044;-19
2022/01/13 02:02:07;;;;;;;19.17;10.55;;;-2.30;61.00;;;;;;5074252;28;20029;-19
2022/01/13 02:04:36;;;;;;;30.38;15.50;;;-2.30;60.30;;;;;;5074885;28;20040;-20
2022/01/13 02:07:05;;;;;;;20.98;11.40;;;-2.30;60.20;;;;;;5074725;28;20013;-19
2022/01/13 02:09:35;;;;;;;20.75;10.57;;;-2.30;60.70;;;;;;5074216;28;20472;-19
2022/01/13 02:12:06;;;;;;;18.58;10.05;;;-2.40;60.10;;;;;;5074381;28;20025;-19
2022/01/13 02:14:35;;;;;;;21.65;12.40;;;-2.30;60.00;;;;;;5074006;28;20037;-20
2022/01/13 02:17:08;;;;;;;20.73;11.32;;;-2.40;60.20;;;;;;5074170;28;20385;-19
2022/01/13 02:19:38;;;;;;;23.02;12.85;;;-2.40;60.80;;;;;;5074055;28;20166;-19
2022/01/13 02:22:06;;;;;;;15.45;8.20;;;-2.40;60.90;;;;;;5074382;28;20040;-19
2022/01/13 02:24:32;;;;;;;12.45;6.32;;;-2.50;59.80;;;;;;5073931;28;21009;-19
2022/01/13 02:26:58;;;;;;;10.82;6.20;;;-2.50;60.70;;;;;;5073930;28;20031;-19
2022/01/13 02:29:24;;;;;;;14.95;7.68;;;-2.50;60.50;;;;;;5073869;28;20023;-19
2022/01/13 02:31:51;;;;;;;12.15;6.72;;;-2.50;60.20;;;;;;5073714;28;20036;-19
2022/01/13 02:34:18;;;;;;;10.68;5.63;;;-2.50;59.20;;;;;;5073730;28;20507;-19
2022/01/13 02:36:46;;;;;;;10.80;5.47;;;-2.50;58.80;;;;;;5073793;28;20035;-19
2022/01/13 02:39:12;;;;;;;16.95;10.13;;;-2.60;59.00;;;;;;5073993;28;20205;-19
2022/01/13 02:41:38;;;;;;;15.00;9.25;;;-2.60;58.90;;;;;;5073627;28;20035;-19
2022/01/13 02:44:13;;;;;;;18.23;8.95;;;-2.60;59.80;;;;;;5074085;28;20024;-19
2022/01/13 02:49:11;;;;;;;19.92;9.65;;;-2.70;61.80;;;;;;5073873;28;20040;-19
2022/01/13 02:51:40;;;;;;;18.23;10.13;;;-2.70;60.90;;;;;;5073458;28;20028;-19
2022/01/13 02:54:07;;;;;;;18.83;10.60;;;-2.80;60.80;;;;;;5073215;28;20044;-19
2022/01/13 02:56:34;;;;;;;12.63;6.18;;;-2.80;60.50;;;;;;5073764;28;20024;-19
2022/01/13 02:59:01;;;;;;;19.63;10.13;;;-2.80;60.50;;;;;;5073980;28;20021;-19
2022/01/13 03:01:27;;;;;;;19.80;10.57;;;-2.80;60.90;;;;;;5073375;28;20032;-19
2022/01/13 03:03:54;;;;;;;19.67;10.40;;;-2.80;61.70;;;;;;5073559;28;20027;-19
2022/01/13 03:06:32;;;;;;;14.50;8.77;;;-2.80;61.60;;;;;;5073563;28;20021;-19
2022/01/13 03:08:58;;;;;;;31.05;17.50;;;-2.80;61.50;;;;;;5073204;28;20028;-19
2022/01/13 03:11:31;;;;;;;28.38;15.18;;;-2.80;65.70;;;;;;5073253;28;20032;-19
2022/01/13 03:13:57;;;;;;;30.50;13.98;;;-2.90;64.20;;;;;;5074087;28;20078;-18
2022/01/13 03:16:23;;;;;;;29.83;13.90;;;-2.80;64.00;;;;;;5073190;28;20040;-19
2022/01/13 03:18:49;;;;;;;29.23;15.75;;;-2.90;63.50;;;;;;5073138;28;20032;-19
2022/01/13 03:21:15;;;;;;;13.90;7.35;;;-2.90;63.70;;;;;;5073078;28;20074;-19
2022/01/13 03:23:42;;;;;;;25.15;13.85;;;-2.90;62.60;;;;;;5073401;28;20060;-19
2022/01/13 03:26:08;;;;;;;15.25;8.88;;;-2.90;63.40;;;;;;5073274;28;20013;-19
2022/01/13 03:28:39;;;;;;;19.42;11.23;;;-2.90;62.50;;;;;;5071635;28;20027;-19
2022/01/13 03:31:08;;;;;;;19.80;10.82;;;-3.00;61.60;;;;;;5073274;28;20054;-19
2022/01/13 03:33:35;;;;;;;11.90;5.85;;;-3.00;61.40;;;;;;5073608;28;20029;-19
2022/01/13 03:36:02;;;;;;;19.08;9.18;;;-3.00;61.40;;;;;;5072913;28;20480;-19
2022/01/13 03:38:30;;;;;;;15.82;7.45;;;-3.00;60.90;;;;;;5072702;28;20508;-19
2022/01/13 03:40:56;;;;;;;11.88;6.30;;;-3.00;61.20;;;;;;5073232;28;20020;-19
2022/01/13 03:43:22;;;;;;;17.98;9.38;;;-3.10;60.80;;;;;;5073237;28;20380;-19
2022/01/13 03:45:48;;;;;;;12.20;5.22;;;-3.10;60.80;;;;;;5073389;28;20067;-19
2022/01/13 03:48:15;;;;;;;11.32;5.95;;;-3.10;60.50;;;;;;5072624;28;20035;-19
2022/01/13 03:50:43;;;;;;;23.23;14.52;;;-3.10;60.30;;;;;;5072909;28;20100;-19
2022/01/13 03:53:11;;;;;;;12.80;6.43;;;-3.20;61.30;;;;;;5069312;28;20116;-19
2022/01/13 03:55:40;;;;;;;9.18;4.93;;;-3.20;61.10;;;;;;5072690;28;20033;-19
2022/01/13 03:58:34;;;;;;;7.32;4.07;;;-3.20;60.60;;;;;;5076392;28;20510;-19
2022/01/13 04:01:18;;;;;;;12.10;5.57;;;-3.30;60.00;;;;;;5077257;28;20028;-19
2022/01/13 04:03:45;;;;;;;;;;;-3.30;60.00;;;;;;5077416;28;20107;-19
2022/01/13 04:06:14;;;;;;;9.07;4.03;;;-3.30;62.10;;;;;;5076730;28;19912;-19
2022/01/13 04:08:40;;;;;;;11.35;6.07;;;-3.30;61.60;;;;;;5076576;28;20063;-19
2022/01/13 04:11:06;;;;;;;14.55;6.85;;;-3.30;61.30;;;;;;5076455;28;20039;-19
2022/01/13 04:16:36;;;;;;;11.30;5.32;;;-3.40;61.10;;;;;;5076547;28;20044;-19
2022/01/13 04:19:06;;;;;;;16.23;5.95;;;-3.50;60.50;;;;;;5076440;28;20480;-19
2022/01/13 04:21:38;;;;;;;15.93;8.65;;;-3.50;60.20;;;;;;5076403;28;20102;-19
2022/01/13 04:24:11;;;;;;;20.73;10.63;;;-3.50;60.10;;;;;;5076511;28;20021;-18
2022/01/13 04:26:39;;;;;;;24.73;13.30;;;-3.50;60.80;;;;;;5076314;28;20020;-18
2022/01/13 04:29:18;;;;;;;17.52;11.05;;;-3.50;63.50;;;;;;5076167;28;20024;-19
2022/01/13 04:31:49;;;;;;;22.38;9.95;;;-3.60;61.80;;;;;;5076103;28;20017;-19
2022/01/13 04:34:17;;;;;;;17.52;8.82;;;-3.50;62.80;;;;;;5075913;28;20089;-20
2022/01/13 04:36:44;;;;;;;24.77;13.27;;;-3.50;63.70;;;;;;5076302;28;20037;-19
2022/01/13 04:39:14;;;;;;;19.48;8.93;;;-3.60;63.50;;;;;;5075947;28;20039;-19
2022/01/13 04:41:44;;;;;;;10.57;5.07;;;-3.50;62.80;;;;;;5076236;28;20029;-18
2022/01/13 04:44:16;;;;;;;14.18;6.82;;;-3.60;62.20;;;;;;5075888;28;20420;-19
2022/01/13 04:46:44;;;;;;;24.73;12.63;;;-3.60;62.90;;;;;;5075813;28;20032;-19
2022/01/13 04:49:10;;;;;;;32.50;16.08;;;-3.60;63.00;;;;;;5076129;28;20051;-19
2022/01/13 04:51:37;;;;;;;11.02;5.72;;;-3.60;63.10;;;;;;5076122;28;20025;-19
2022/01/13 04:54:05;;;;;;;11.55;5.95;;;-3.60;62.80;;;;;;5075564;28;20075;-19
2022/01/13 04:59:07;;;;;;;23.77;12.23;;;-3.60;62.30;;;;;;5075752;28;20029;-19
2022/01/13 05:01:35;;;;;;;15.40;8.10;;;-3.60;61.90;;;;;;5075894;28;20086;-19
2022/01/13 05:04:01;;;;;;;21.70;11.27;;;-3.60;63.10;;;;;;5075781;28;20036;-19
2022/01/13 05:06:26;;;;;;;20.52;9.65;;;-3.50;64.80;;;;;;5075688;28;20063;-19
2022/01/13 05:08:52;;;;;;;18.33;8.73;;;-3.50;63.40;;;;;;5074151;28;20484;-19
2022/01/13 05:11:20;;;;;;;16.80;8.98;;;-3.40;63.50;;;;;;5075427;28;20020;-20
2022/01/13 05:13:46;;;;;;;13.57;7.18;;;-3.40;63.00;;;;;;5075375;28;20035;-19
2022/01/13 05:16:22;;;;;;;13.52;7.20;;;-3.30;62.70;;;;;;5075036;28;20021;-21
2022/01/13 05:19:10;;;;;;;26.45;14.25;;;-3.30;62.50;;;;;;5075279;28;20040;-19
2022/01/13 05:24:20;;;;;;;;;;;-3.20;64.90;;;;;;5075545;28;20043;-19
2022/01/13 05:26:46;;;;;;;17.20;9.05;;;-3.10;65.60;;;;;;5075135;28;20272;-19
2022/01/13 05:29:17;;;;;;;17.60;9.45;;;-3.10;64.40;;;;;;5075507;28;20116;-19
2022/01/13 05:31:43;;;;;;;25.17;12.82;;;-3.10;64.00;;;;;;5075328;28;20379;-20
2022/01/13 05:34:09;;;;;;;30.38;16.88;;;-3.00;63.00;;;;;;5075011;28;20115;-19
2022/01/13 05:36:35;;;;;;;29.88;17.75;;;-3.10;64.70;;;;;;5074976;28;20093;-20
2022/01/13 05:39:01;;;;;;;33.70;16.33;;;-3.10;64.80;;;;;;5074192;28;20404;-20
2022/01/13 05:41:28;;;;;;;42.13;21.08;;;-3.00;65.60;;;;;;5075311;28;20027;-19
2022/01/13 05:43:54;;;;;;;27.35;13.13;;;-3.00;65.20;;;;;;5074844;28;20544;-20
2022/01/13 05:46:20;;;;;;;38.35;20.65;;;-3.00;64.60;;;;;;5074854;28;20051;-20
2022/01/13 05:48:45;;;;;;;21.13;10.00;;;-3.00;65.00;;;;;;5074909;28;20472;-20
2022/01/13 05:51:11;;;;;;;19.02;8.85;;;-3.00;64.00;;;;;;5074606;28;20464;-20
2022/01/13 05:53:37;;;;;;;10.88;5.63;;;-3.00;63.70;;;;;;5074281;28;20049;-20
2022/01/13 05:56:03;;;;;;;16.88;7.60;;;-3.10;62.60;;;;;;5074484;28;20094;-20
2022/01/13 05:58:29;;;;;;;32.40;14.02;;;-3.10;61.70;;;;;;5074599;28;20029;-20
2022/01/13 06:00:55;;;;;;;19.05;10.80;;;-3.10;63.30;;;;;;5074676;28;20046;-21
2022/01/13 06:03:21;;;;;;;21.63;10.32;;;-3.10;63.50;;;;;;5074690;28;20074;-20
2022/01/13 06:05:47;;;;;;;13.32;7.50;;;-3.20;64.00;;;;;;5074356;28;20495;-20
2022/01/13 06:08:13;;;;;;;13.43;8.23;;;-3.20;62.80;;;;;;5074135;28;20119;-20
2022/01/13 06:10:43;;;;;;;17.77;8.60;;;-3.20;62.30;;;;;;5074271;28;20020;-20
2022/01/13 06:13:09;;;;;;;24.75;12.57;;;-3.30;62.50;;;;;;5074263;28;20024;-20
2022/01/13 06:15:37;;;;;;;18.88;9.23;;;-3.30;62.60;;;;;;5074006;28;20135;-20
2022/01/13 06:18:04;;;;;;;19.25;9.88;;;-3.30;62.30;;;;;;5074318;28;20090;-20
2022/01/13 06:20:31;;;;;;;18.80;8.95;;;-3.30;62.20;;;;;;5073486;28;20074;-20
2022/01/13 06:22:58;;;;;;;13.90;6.95;;;-3.30;63.10;;;;;;5073887;28;20056;-21
2022/01/13 06:25:25;;;;;;;12.10;6.15;;;-3.40;63.40;;;;;;5073982;28;20028;-20
2022/01/13 06:27:51;;;;;;;20.65;9.63;;;-3.50;62.30;;;;;;5073902;28;20075;-20
2022/01/13 06:30:17;;;;;;;12.05;5.55;;;-3.50;62.20;;;;;;5073715;28;20055;-20
2022/01/13 06:32:46;;;;;;;18.23;8.35;;;-3.50;62.30;;;;;;5073730;28;20388;-20
2022/01/13 06:35:13;;;;;;;11.70;5.75;;;-3.50;62.60;;;;;;5074090;28;20111;-21
2022/01/13 06:37:41;;;;;;;16.08;9.75;;;-3.60;62.40;;;;;;5073994;28;20047;-20
2022/01/13 06:40:08;;;;;;;12.55;6.30;;;-3.60;63.30;;;;;;5073709;28;20041;-20
2022/01/13 06:42:34;;;;;;;12.63;5.30;;;-3.60;62.90;;;;;;5072182;28;20115;-20
2022/01/13 06:45:00;;;;;;;8.55;4.47;;;-3.60;62.30;;;;;;5073816;28;20116;-20
2022/01/13 06:47:26;;;;;;;18.55;10.00;;;-3.70;62.10;;;;;;5073895;28;20103;-20
2022/01/13 06:49:52;;;;;;;11.20;4.88;;;-3.70;62.60;;;;;;5073513;28;20075;-20
2022/01/13 06:52:18;;;;;;;17.90;8.88;;;-3.70;62.80;;;;;;5073913;28;20027;-20
2022/01/13 06:54:44;;;;;;;8.50;4.38;;;-3.80;62.50;;;;;;5072059;28;20052;-20
2022/01/13 06:57:11;;;;;;;6.30;3.13;;;-3.80;62.20;;;;;;5073582;28;20054;-20
2022/01/13 06:59:38;;;;;;;6.78;3.90;;;-3.80;61.90;;;;;;5073647;28;20044;-20
2022/01/13 07:02:04;;;;;;;7.75;3.75;;;-3.80;61.90;;;;;;5073275;28;20023;-20
2022/01/13 07:04:30;;;;;;;22.33;10.27;;;-3.80;61.70;;;;;;5073287;28;20100;-20
2022/01/13 07:06:56;;;;;;;7.50;4.68;;;-3.80;62.00;;;;;;5073261;28;20103;-20
2022/01/13 07:09:23;;;;;;;19.70;9.38;;;-3.80;62.00;;;;;;5073263;28;20032;-20
2022/01/13 07:11:49;;;;;;;11.57;5.30;;;-3.80;64.70;;;;;;5073230;28;20115;-20
2022/01/13 07:14:15;;;;;;;7.28;4.10;;;-3.90;62.90;;;;;;5073348;28;20487;-19
2022/01/13 07:16:42;;;;;;;10.10;4.93;;;-3.90;62.40;;;;;;5073007;28;20048;-20
2022/01/13 07:19:11;;;;;;;10.98;5.50;;;-3.90;62.70;;;;;;5073323;28;20089;-20
2022/01/13 07:21:39;;;;;;;10.35;4.68;;;-3.90;62.70;;;;;;5073145;28;20034;-20
2022/01/13 07:24:05;;;;;;;7.97;3.80;;;-3.90;62.80;;;;;;5073315;28;20041;-20
2022/01/13 07:26:31;;;;;;;6.53;3.28;;;-3.80;62.80;;;;;;5072933;28;20017;-20
2022/01/13 07:28:59;;;;;;;7.68;3.78;;;-3.80;62.20;;;;;;5072674;28;20027;-20
2022/01/13 07:31:25;;;;;;;6.88;3.10;;;-3.80;62.10;;;;;;5072221;28;20021;-20
2022/01/13 07:33:51;;;;;;;10.88;5.47;;;-3.80;62.20;;;;;;5073299;28;20025;-20
2022/01/13 07:36:17;;;;;;;16.67;8.15;;;-3.70;62.50;;;;;;5072933;28;20033;-19
2022/01/13 07:38:42;;;;;;;28.42;14.13;;;-3.60;63.40;;;;;;5072945;28;20024;-20
2022/01/13 07:41:09;;;;;;;12.15;5.97;;;-3.50;63.00;;;;;;5073231;28;20032;-19
2022/01/13 07:43:35;;;;;;;15.60;6.13;;;-3.40;62.80;;;;;;5072981;28;20108;-20
2022/01/13 07:46:01;;;;;;;33.70;11.63;;;-3.30;64.00;;;;;;5072830;28;20027;-20
2022/01/13 07:48:27;;;;;;;29.60;13.48;;;-3.10;64.00;;;;;;5072663;28;20107;-19
2022/01/13 07:50:53;;;;;;;39.10;18.55;;;-3.00;64.40;;;;;;5072935;28;20032;-20
2022/01/13 07:53:20;;;;;;;36.90;16.73;;;-2.80;63.60;;;;;;5068683;28;20048;-20
2022/01/13 07:55:47;;;;;;;13.60;6.68;;;-2.60;62.60;;;;;;5073027;28;20036;-20
2022/01/13 07:58:13;;;;;;;40.42;20.63;;;-2.50;63.20;;;;;;5072802;28;20056;-20
2022/01/13 08:00:39;;;;;;;19.73;9.65;;;-2.30;64.40;;;;;;5073168;28;20017;-21
2022/01/13 08:03:05;;;;;;;35.47;16.75;;;-2.20;64.30;;;;;;5072807;28;20027;-19
2022/01/13 08:05:30;;;;;;;32.75;18.13;;;-2.00;63.80;;;;;;5072675;28;20028;-20
2022/01/13 08:07:56;;;;;;;35.60;18.40;;;-2.00;63.80;;;;;;5072987;28;20055;-20
2022/01/13 08:10:22;;;;;;;51.78;26.10;;;-1.80;66.40;;;;;;5072511;28;20027;-19
2022/01/13 08:12:48;;;;;;;33.22;19.77;;;-1.70;65.40;;;;;;5072653;28;20028;-19
2022/01/13 08:15:14;;;;;;;36.58;18.17;;;-1.60;65.60;;;;;;5072965;28;20024;-19
2022/01/13 08:20:27;;;;;;;33.97;17.60;;;-1.40;64.70;;;;;;5072723;28;20040;-19
2022/01/13 08:22:53;;;;;;;30.08;16.10;;;-1.30;66.60;;;;;;5072823;28;20032;-19
2022/01/13 08:25:21;;;;;;;40.30;20.27;;;-1.20;66.20;;;;;;5072480;28;20503;-19
2022/01/13 08:27:48;;;;;;;49.55;24.38;;;-1.10;65.20;;;;;;5072449;28;20028;-19
2022/01/13 08:30:15;;;;;;;38.33;18.33;;;-0.90;65.40;;;;;;5072330;28;20033;-20
2022/01/13 08:32:41;;;;;;;46.95;23.27;;;-0.70;65.20;;;;;;5073196;28;20028;-19
2022/01/13 08:35:08;;;;;;;42.47;20.33;;;-0.60;66.00;;;;;;5072864;28;20024;-19
2022/01/13 08:37:34;;;;;;;24.20;13.88;;;-0.40;66.10;;;;;;5072323;28;20035;-20
2022/01/13 08:40:03;;;;;;;25.50;13.50;;;-0.20;64.70;;;;;;5072627;28;20028;-20
2022/01/13 08:42:29;;;;;;;37.67;21.95;;;0.00;64.60;;;;;;5072949;28;20468;-20
2022/01/13 08:44:55;;;;;;;28.08;17.50;;;0.10;64.40;;;;;;5076214;28;20052;-20
2022/01/13 08:47:21;;;;;;;27.77;15.32;;;0.30;64.10;;;;;;5076071;28;20035;-19
2022/01/13 08:49:47;;;;;;;26.30;14.73;;;0.60;63.00;;;;;;5076203;28;20392;-19
2022/01/13 08:52:13;;;;;;;25.30;13.13;;;0.80;62.10;;;;;;5074379;28;20063;-20
2022/01/13 08:54:41;;;;;;;28.15;14.55;;;1.10;62.30;;;;;;5075604;28;20468;-20
2022/01/13 08:57:07;;;;;;;35.67;16.83;;;1.40;61.10;;;;;;5075634;28;20028;-20
2022/01/13 08:59:33;;;;;;;22.92;13.95;;;1.60;60.90;;;;;;5076278;28;20025;-19
2022/01/13 09:01:59;;;;;;;25.80;14.55;;;1.90;60.20;;;;;;5075817;28;20017;-20
2022/01/13 09:04:25;;;;;;;29.67;16.50;;;2.20;59.40;;;;;;5075349;28;20389;-20
2022/01/13 09:06:51;;;;;;;29.30;16.10;;;2.50;60.20;;;;;;5075842;28;20020;-20
2022/01/13 09:09:17;;;;;;;26.95;15.00;;;2.80;59.40;;;;;;5074298;28;20027;-20
2022/01/13 09:11:43;;;;;;;33.05;18.52;;;3.00;58.60;;;;;;5075898;28;20115;-20
2022/01/13 09:14:09;;;;;;;31.08;17.58;;;3.20;58.30;;;;;;5075382;28;20085;-20
2022/01/13 09:16:42;;;;;;;35.78;18.90;;;3.50;58.10;;;;;;5075319;28;20055;-20
2022/01/13 09:19:13;;;;;;;28.17;15.98;;;3.70;57.50;;;;;;5075697;28;20040;-20
2022/01/13 09:21:44;;;;;;;30.42;14.98;;;3.90;56.90;;;;;;5075938;28;20460;-20
2022/01/13 09:24:19;;;;;;;20.15;10.95;;;4.10;56.20;;;;;;5075884;28;20033;-21
2022/01/13 09:26:45;;;;;;;30.85;18.58;;;4.40;55.50;;;;;;5075533;28;20029;-21
2022/01/13 09:29:12;;;;;;;33.38;18.25;;;4.70;55.90;;;;;;5075149;28;20115;-21
2022/01/13 09:31:40;;;;;;;23.98;13.95;;;4.80;54.80;;;;;;5074054;28;20055;-20
2022/01/13 09:34:07;;;;;;;27.95;15.32;;;5.00;54.30;;;;;;5075046;28;20048;-20
2022/01/13 09:36:33;;;;;;;26.80;15.75;;;5.20;53.20;;;;;;5075014;28;20301;-21
2022/01/13 09:39:02;;;;;;;24.60;14.27;;;5.40;53.50;;;;;;5075622;28;20047;-21
2022/01/13 09:41:30;;;;;;;23.75;13.23;;;5.50;52.90;;;;;;5074910;28;20021;-21
2022/01/13 09:44:02;;;;;;;19.50;11.00;;;5.70;52.70;;;;;;5074850;28;20028;-21
2022/01/13 09:46:30;;;;;;;22.67;12.75;;;5.90;52.50;;;;;;5074948;28;20073;-21
2022/01/13 09:48:56;;;;;;;32.65;18.50;;;6.00;52.00;;;;;;5074744;28;20029;-22
2022/01/13 09:51:25;;;;;;;51.42;20.88;;;6.20;51.70;;;;;;5075001;28;20025;-21
2022/01/13 09:53:52;;;;;;;33.03;16.30;;;6.40;51.50;;;;;;5073989;28;20048;-21
2022/01/13 09:56:19;;;;;;;29.27;15.65;;;6.60;51.10;;;;;;5074245;28;20119;-21
2022/01/13 09:58:45;;;;;;;26.92;16.13;;;6.80;51.60;;;;;;5074806;28;20028;-21
2022/01/13 10:01:13;;;;;;;23.15;12.82;;;6.90;51.00;;;;;;5074371;28;20116;-21
2022/01/13 10:03:39;;;;;;;20.33;11.82;;;7.00;49.60;;;;;;5074252;28;20032;-21
2022/01/13 10:06:13;;;;;;;17.08;10.48;;;7.20;49.50;;;;;;5073130;28;20033;-22
2022/01/13 10:08:41;;;;;;;21.05;11.82;;;7.30;49.80;;;;;;5074416;28;20032;-22
2022/01/13 10:11:27;;;;;;;16.75;9.32;;;7.60;49.20;;;;;;5074835;28;20063;-21
2022/01/13 10:14:10;;;;;;;17.38;10.43;;;7.80;49.70;;;;;;5074696;28;20020;-22
2022/01/13 10:16:48;;;;;;;17.80;10.50;;;7.90;49.00;;;;;;5074126;28;20119;-21
2022/01/13 10:19:33;;;;;;;14.00;7.43;;;8.20;48.40;;;;;;5074165;28;20028;-22
2022/01/13 10:22:03;;;;;;;12.23;6.57;;;8.40;49.30;;;;;;5072964;28;20037;-21
2022/01/13 10:24:31;;;;;;;23.13;13.20;;;8.60;49.40;;;;;;5073966;28;20012;-22
2022/01/13 10:27:06;;;;;;;15.10;9.10;;;8.90;48.00;;;;;;5073986;28;20040;-22
2022/01/13 10:29:46;;;;;;;16.13;9.23;;;9.10;48.30;;;;;;5074085;28;20099;-21
2022/01/13 10:32:17;;;;;;;13.52;7.55;;;9.40;48.20;;;;;;5074164;28;20035;-21
2022/01/13 10:34:47;;;;;;;11.32;7.07;;;9.50;48.00;;;;;;5074488;28;20396;-22
2022/01/13 10:37:30;;;;;;;19.52;11.23;;;9.80;47.60;;;;;;5073718;28;20047;-21
2022/01/13 10:40:14;;;;;;;13.98;8.13;;;10.00;43.40;;;;;;5074031;28;20056;-22
2022/01/13 10:43:21;;;;;;;18.10;10.32;;;10.20;43.90;;;;;;5074587;28;20029;-21
2022/01/13 10:45:49;;;;;;;18.92;10.05;;;10.40;44.90;;;;;;5073370;28;20043;-22
2022/01/13 10:48:32;;;;;;;19.02;9.52;;;10.60;42.90;;;;;;5073785;28;20036;-22
2022/01/13 10:51:05;;;;;;;19.13;11.02;;;10.70;42.30;;;;;;5073548;28;20029;-21
2022/01/13 10:53:36;;;;;;;17.67;9.60;;;10.80;41.90;;;;;;5073510;28;20057;-21
2022/01/13 10:56:08;;;;;;;14.35;8.88;;;10.90;42.50;;;;;;5073437;28;20020;-21
2022/01/13 10:58:37;;;;;;;14.30;7.30;;;11.00;44.00;;;;;;5073275;28;20036;-21
2022/01/13 11:01:05;;;;;;;12.32;6.57;;;11.20;45.00;;;;;;5073638;28;20028;-21
2022/01/13 11:03:34;;;;;;;15.20;8.93;;;11.40;45.00;;;;;;5073554;28;20056;-21
2022/01/13 11:06:05;;;;;;;20.63;11.35;;;11.60;44.40;;;;;;5073220;28;20024;-21
2022/01/13 11:08:40;;;;;;;23.02;13.73;;;11.90;42.50;;;;;;5073425;28;20033;-21
2022/01/13 11:11:17;;;;;;;13.48;7.60;;;12.10;41.60;;;;;;5074161;28;20070;-21
2022/01/13 11:14:08;;;;;;;16.70;9.40;;;12.40;43.10;;;;;;5073332;28;20036;-21
2022/01/13 11:16:37;;;;;;;13.48;8.07;;;12.70;42.40;;;;;;5072951;28;20043;-22
2022/01/13 11:19:05;;;;;;;12.02;7.50;;;13.00;42.80;;;;;;5073615;28;20115;-21
2022/01/13 11:21:32;;;;;;;18.40;11.38;;;13.20;42.20;;;;;;5073478;28;20113;-22
2022/01/13 11:24:00;;;;;;;16.00;9.52;;;13.40;40.30;;;;;;5073286;28;20039;-21
2022/01/13 11:26:27;;;;;;;15.52;9.77;;;13.50;41.20;;;;;;5072842;28;20021;-21
2022/01/13 11:29:00;;;;;;;17.00;8.80;;;13.70;40.50;;;;;;5073100;28;20540;-21
2022/01/13 11:31:26;;;;;;;13.23;8.00;;;13.90;40.00;;;;;;5073348;28;20047;-21
2022/01/13 11:33:52;;;;;;;12.13;7.32;;;14.20;40.40;;;;;;5073325;28;20100;-22
2022/01/13 11:36:20;;;;;;;15.20;8.07;;;14.60;39.30;;;;;;5072926;28;20025;-21
2022/01/13 11:38:55;;;;;;;14.73;8.75;;;15.00;39.80;;;;;;5073011;28;20035;-21
2022/01/13 11:41:21;;;;;;;13.48;8.10;;;15.40;38.70;;;;;;5073281;28;20111;-21
2022/01/13 11:43:47;;;;;;;9.23;5.57;;;15.80;39.10;;;;;;5073253;28;20031;-21
2022/01/13 11:46:16;;;;;;;10.70;6.90;;;16.10;38.90;;;;;;5071434;28;20394;-21
2022/01/13 11:49:22;;;;;;;13.52;7.45;;;16.40;38.20;;;;;;5072897;28;20029;-21
2022/01/13 11:51:57;;;;;;;15.63;9.45;;;16.80;37.40;;;;;;5070821;28;20037;-21
2022/01/13 11:54:28;;;;;;;15.35;9.32;;;17.20;36.50;;;;;;5066704;28;20072;-21
2022/01/13 11:57:14;;;;;;;11.45;7.13;;;17.40;35.70;;;;;;5070726;28;20110;-21
2022/01/13 11:59:56;;;;;;;11.30;7.68;;;17.70;33.40;;;;;;5071545;28;20031;-21
2022/01/13 12:02:25;;;;;;;17.58;10.45;;;17.90;35.10;;;;;;5053949;28;20055;-21
2022/01/13 12:05:14;;;;;;;10.73;6.70;;;18.10;34.90;;;;;;5071045;28;20477;-22
2022/01/13 12:07:43;;;;;;;15.43;8.32;;;18.40;34.90;;;;;;5070741;28;20033;-22
2022/01/13 12:10:31;;;;;;;11.48;7.32;;;18.70;34.90;;;;;;5070556;28;20552;-22
2022/01/13 12:12:57;;;;;;;11.32;5.95;;;19.10;34.30;;;;;;5071100;28;20104;-21
2022/01/13 12:15:26;;;;;;;10.98;6.80;;;19.40;34.80;;;;;;5070803;28;20090;-21
2022/01/13 12:17:56;;;;;;;9.05;5.57;;;19.70;34.50;;;;;;5071880;28;20107;-21
2022/01/13 12:23:16;;;;;;;12.57;7.95;;;20.40;33.60;;;;;;5074401;28;20040;-21
2022/01/13 12:25:44;;;;;;;10.43;5.80;;;20.60;33.30;;;;;;5074200;28;20554;-21
2022/01/13 12:28:18;;;;;;;11.57;7.25;;;20.90;33.30;;;;;;5075970;28;20060;-21
2022/01/13 12:30:45;;;;;;;11.02;7.10;;;21.20;33.10;;;;;;5076516;28;20056;-21
2022/01/13 12:33:12;;;;;;;15.73;8.48;;;21.50;32.60;;;;;;5076365;28;20035;-21
2022/01/13 12:35:39;;;;;;;15.20;9.63;;;21.80;31.30;;;;;;5076729;28;20021;-22
2022/01/13 12:38:12;;;;;;;10.55;6.63;;;22.00;31.40;;;;;;5076260;28;20037;-21
2022/01/13 12:40:55;;;;;;;13.55;8.93;;;22.10;31.50;;;;;;5074718;28;20376;-21
2022/01/13 12:46:07;;;;;;;16.38;10.82;;;22.50;26.30;;;;;;5075970;28;20280;-21
2022/01/13 12:48:34;;;;;;;16.42;11.27;;;22.50;30.70;;;;;;5076053;28;20063;-21
2022/01/13 12:51:01;;;;;;;12.75;8.05;;;22.30;30.90;;;;;;5076461;28;20025;-21
2022/01/13 12:53:33;;;;;;;14.68;8.77;;;21.90;31.20;;;;;;5075818;28;20044;-22
2022/01/13 12:56:02;;;;;;;11.82;8.32;;;21.60;31.70;;;;;;5075933;28;20025;-22
2022/01/13 12:58:32;;;;;;;15.35;9.63;;;21.40;32.00;;;;;;5076312;28;20052;-21
2022/01/13 13:01:00;;;;;;;14.40;9.45;;;21.30;31.90;;;;;;5076012;28;20029;-21
2022/01/13 13:03:26;;;;;;;16.52;10.60;;;21.20;32.00;;;;;;5075970;28;20027;-21
2022/01/13 13:05:53;;;;;;;13.02;8.43;;;21.10;31.50;;;;;;5075552;28;20396;-21
2022/01/13 13:08:22;;;;;;;15.32;10.38;;;20.90;32.00;;;;;;5075416;28;20116;-21
2022/01/13 13:10:52;;;;;;;15.85;10.45;;;20.60;32.10;;;;;;5075775;28;20020;-21
2022/01/13 13:13:19;;;;;;;12.90;9.00;;;20.40;32.40;;;;;;5075798;28;20020;-21
2022/01/13 13:16:00;;;;;;;15.27;10.55;;;20.30;32.80;;;;;;5075425;28;20056;-21
2022/01/13 13:18:29;;;;;;;14.55;10.13;;;20.20;30.60;;;;;;5075438;28;20028;-21